sensor_id;sensor_type;location;lat;lon;timestamp;P1;durP1;ratioP1;P2;durP2;ratioP2
63346;SDS011;49472;49.880;8.650;2022-12-08T00:01:09;38.77;;;27.83;;
63346;SDS011;49472;49.880;8.650;2022-12-08T00:03:36;34.30;;;25.40;;
63346;SDS011;49472;49.880;8.650;2022-12-08T00:06:03;40.93;;;26.00;;
63346;SDS011;49472;49.880;8.650;2022-12-08T00:08:48;38.10;;;25.80;;
63346;SDS011;49472;49.880;8.650;2022-12-08T00:11:32;35.80;;;26.00;;
63346;SDS011;49472;49.880;8.650;2022-12-08T00:13:58;34.80;;;25.57;;
63346;SDS011;49472;49.880;8.650;2022-12-08T00:16:24;36.60;;;26.50;;
63346;SDS011;49472;49.880;8.650;2022-12-08T00:18:49;34.13;;;24.70;;
63346;SDS011;49472;49.880;8.650;2022-12-08T00:21:14;33.43;;;25.70;;
63346;SDS011;49472;49.880;8.650;2022-12-08T00:23:39;40.70;;;27.07;;
63346;SDS011;49472;49.880;8.650;2022-12-08T00:26:05;36.03;;;26.90;;
63346;SDS011;49472;49.880;8.650;2022-12-08T00:28:31;46.33;;;27.80;;
63346;SDS011;49472;49.880;8.650;2022-12-08T00:30:58;36.23;;;26.27;;
63346;SDS011;49472;49.880;8.650;2022-12-08T00:33:23;47.03;;;24.93;;
63346;SDS011;49472;49.880;8.650;2022-12-08T00:35:49;27.83;;;20.70;;
63346;SDS011;49472;49.880;8.650;2022-12-08T00:38:14;33.47;;;23.27;;
63346;SDS011;49472;49.880;8.650;2022-12-08T00:40:45;39.53;;;25.93;;
63346;SDS011;49472;49.880;8.650;2022-12-08T00:43:11;33.03;;;22.80;;
63346;SDS011;49472;49.880;8.650;2022-12-08T00:45:37;33.67;;;24.70;;
63346;SDS011;49472;49.880;8.650;2022-12-08T00:48:02;33.63;;;25.20;;
63346;SDS011;49472;49.880;8.650;2022-12-08T00:50:28;34.70;;;25.60;;
63346;SDS011;49472;49.880;8.650;2022-12-08T00:52:53;39.23;;;24.10;;
63346;SDS011;49472;49.880;8.650;2022-12-08T00:55:18;32.10;;;24.87;;
63346;SDS011;49472;49.880;8.650;2022-12-08T00:57:44;35.40;;;23.20;;
63346;SDS011;49472;49.880;8.650;2022-12-08T01:00:09;32.87;;;24.10;;
63346;SDS011;49472;49.880;8.650;2022-12-08T01:02:35;37.17;;;25.07;;
63346;SDS011;49472;49.880;8.650;2022-12-08T01:05:00;33.40;;;24.40;;
63346;SDS011;49472;49.880;8.650;2022-12-08T01:07:25;38.10;;;26.10;;
63346;SDS011;49472;49.880;8.650;2022-12-08T01:09:50;34.37;;;25.37;;
63346;SDS011;49472;49.880;8.650;2022-12-08T01:12:16;38.40;;;26.07;;
63346;SDS011;49472;49.880;8.650;2022-12-08T01:14:42;38.83;;;26.00;;
63346;SDS011;49472;49.880;8.650;2022-12-08T01:17:07;40.63;;;25.43;;
63346;SDS011;49472;49.880;8.650;2022-12-08T01:19:32;39.23;;;25.70;;
63346;SDS011;49472;49.880;8.650;2022-12-08T01:21:58;33.37;;;24.83;;
63346;SDS011;49472;49.880;8.650;2022-12-08T01:24:23;34.83;;;25.07;;
63346;SDS011;49472;49.880;8.650;2022-12-08T01:26:49;32.27;;;24.70;;
63346;SDS011;49472;49.880;8.650;2022-12-08T01:29:14;31.73;;;25.23;;
63346;SDS011;49472;49.880;8.650;2022-12-08T01:31:40;30.60;;;24.83;;
63346;SDS011;49472;49.880;8.650;2022-12-08T01:34:06;34.63;;;24.83;;
63346;SDS011;49472;49.880;8.650;2022-12-08T01:36:33;32.30;;;23.33;;
63346;SDS011;49472;49.880;8.650;2022-12-08T01:39:01;29.47;;;23.87;;
63346;SDS011;49472;49.880;8.650;2022-12-08T01:41:28;33.83;;;24.20;;
63346;SDS011;49472;49.880;8.650;2022-12-08T01:44:00;31.97;;;23.07;;
63346;SDS011;49472;49.880;8.650;2022-12-08T01:46:41;38.00;;;25.23;;
63346;SDS011;49472;49.880;8.650;2022-12-08T01:49:12;33.80;;;24.70;;
63346;SDS011;49472;49.880;8.650;2022-12-08T01:51:48;36.10;;;24.83;;
63346;SDS011;49472;49.880;8.650;2022-12-08T01:54:19;30.77;;;23.30;;
63346;SDS011;49472;49.880;8.650;2022-12-08T01:56:51;31.63;;;22.87;;
63346;SDS011;49472;49.880;8.650;2022-12-08T01:59:22;33.23;;;22.87;;
63346;SDS011;49472;49.880;8.650;2022-12-08T02:01:49;36.07;;;24.67;;
63346;SDS011;49472;49.880;8.650;2022-12-08T02:04:15;32.20;;;23.87;;
63346;SDS011;49472;49.880;8.650;2022-12-08T02:06:40;36.83;;;24.43;;
63346;SDS011;49472;49.880;8.650;2022-12-08T02:09:08;37.30;;;24.30;;
63346;SDS011;49472;49.880;8.650;2022-12-08T02:11:34;38.40;;;23.73;;
63346;SDS011;49472;49.880;8.650;2022-12-08T02:13:59;28.50;;;22.43;;
63346;SDS011;49472;49.880;8.650;2022-12-08T02:22:33;30.30;;;23.20;;
63346;SDS011;49472;49.880;8.650;2022-12-08T02:35:35;30.90;;;22.83;;
63346;SDS011;49472;49.880;8.650;2022-12-08T02:38:21;31.87;;;23.47;;
63346;SDS011;49472;49.880;8.650;2022-12-08T02:47:07;35.53;;;24.20;;
63346;SDS011;49472;49.880;8.650;2022-12-08T02:49:16;38.10;;;24.40;;
63346;SDS011;49472;49.880;8.650;2022-12-08T02:51:42;32.00;;;23.67;;
63346;SDS011;49472;49.880;8.650;2022-12-08T02:54:07;31.83;;;23.53;;
63346;SDS011;49472;49.880;8.650;2022-12-08T03:10:25;34.17;;;23.37;;
63346;SDS011;49472;49.880;8.650;2022-12-08T03:13:06;32.10;;;23.83;;
63346;SDS011;49472;49.880;8.650;2022-12-08T03:15:37;31.83;;;22.87;;
63346;SDS011;49472;49.880;8.650;2022-12-08T03:18:04;36.53;;;22.97;;
63346;SDS011;49472;49.880;8.650;2022-12-08T03:20:32;29.50;;;22.03;;
63346;SDS011;49472;49.880;8.650;2022-12-08T03:22:59;31.60;;;22.03;;
63346;SDS011;49472;49.880;8.650;2022-12-08T03:25:28;34.70;;;24.80;;
63346;SDS011;49472;49.880;8.650;2022-12-08T03:27:56;32.93;;;22.60;;
63346;SDS011;49472;49.880;8.650;2022-12-08T03:30:23;36.43;;;23.57;;
63346;SDS011;49472;49.880;8.650;2022-12-08T03:32:53;33.53;;;24.23;;
63346;SDS011;49472;49.880;8.650;2022-12-08T03:35:28;28.47;;;22.43;;
63346;SDS011;49472;49.880;8.650;2022-12-08T03:38:02;29.80;;;21.80;;
63346;SDS011;49472;49.880;8.650;2022-12-08T03:40:33;30.57;;;21.80;;
63346;SDS011;49472;49.880;8.650;2022-12-08T03:42:58;32.10;;;21.87;;
63346;SDS011;49472;49.880;8.650;2022-12-08T03:45:24;31.03;;;22.87;;
63346;SDS011;49472;49.880;8.650;2022-12-08T03:47:49;33.27;;;24.03;;
63346;SDS011;49472;49.880;8.650;2022-12-08T03:50:15;33.80;;;23.30;;
63346;SDS011;49472;49.880;8.650;2022-12-08T03:52:41;28.47;;;21.63;;
63346;SDS011;49472;49.880;8.650;2022-12-08T03:55:06;32.03;;;22.73;;
63346;SDS011;49472;49.880;8.650;2022-12-08T03:57:32;34.00;;;22.83;;
63346;SDS011;49472;49.880;8.650;2022-12-08T03:59:57;29.20;;;22.33;;
63346;SDS011;49472;49.880;8.650;2022-12-08T04:02:22;28.30;;;21.70;;
63346;SDS011;49472;49.880;8.650;2022-12-08T04:04:47;32.20;;;23.13;;
63346;SDS011;49472;49.880;8.650;2022-12-08T04:07:13;29.53;;;22.57;;
63346;SDS011;49472;49.880;8.650;2022-12-08T04:09:38;31.53;;;23.77;;
63346;SDS011;49472;49.880;8.650;2022-12-08T04:12:05;26.80;;;21.80;;
63346;SDS011;49472;49.880;8.650;2022-12-08T04:14:31;28.60;;;22.37;;
63346;SDS011;49472;49.880;8.650;2022-12-08T04:16:56;29.23;;;23.03;;
63346;SDS011;49472;49.880;8.650;2022-12-08T04:19:22;34.37;;;22.60;;
63346;SDS011;49472;49.880;8.650;2022-12-08T04:21:47;28.07;;;21.80;;
63346;SDS011;49472;49.880;8.650;2022-12-08T04:24:12;30.43;;;22.27;;
63346;SDS011;49472;49.880;8.650;2022-12-08T04:26:38;31.93;;;22.07;;
63346;SDS011;49472;49.880;8.650;2022-12-08T04:29:03;27.93;;;20.63;;
63346;SDS011;49472;49.880;8.650;2022-12-08T04:31:28;28.53;;;21.53;;
63346;SDS011;49472;49.880;8.650;2022-12-08T04:33:54;26.57;;;20.23;;
63346;SDS011;49472;49.880;8.650;2022-12-08T04:36:19;26.13;;;20.33;;
63346;SDS011;49472;49.880;8.650;2022-12-08T04:38:44;28.70;;;21.90;;
63346;SDS011;49472;49.880;8.650;2022-12-08T04:41:09;30.97;;;22.83;;
63346;SDS011;49472;49.880;8.650;2022-12-08T04:43:35;30.77;;;22.93;;
63346;SDS011;49472;49.880;8.650;2022-12-08T04:46:01;31.80;;;22.43;;
63346;SDS011;49472;49.880;8.650;2022-12-08T04:48:30;33.97;;;22.67;;
63346;SDS011;49472;49.880;8.650;2022-12-08T04:50:55;33.23;;;22.07;;
63346;SDS011;49472;49.880;8.650;2022-12-08T04:53:20;30.57;;;21.33;;
63346;SDS011;49472;49.880;8.650;2022-12-08T04:55:46;28.20;;;20.03;;
63346;SDS011;49472;49.880;8.650;2022-12-08T04:58:14;28.93;;;21.70;;
63346;SDS011;49472;49.880;8.650;2022-12-08T05:00:41;28.50;;;21.87;;
63346;SDS011;49472;49.880;8.650;2022-12-08T05:03:06;24.83;;;19.97;;
63346;SDS011;49472;49.880;8.650;2022-12-08T05:05:32;26.40;;;20.90;;
63346;SDS011;49472;49.880;8.650;2022-12-08T05:07:57;26.87;;;21.40;;
63346;SDS011;49472;49.880;8.650;2022-12-08T05:10:24;27.53;;;21.60;;
63346;SDS011;49472;49.880;8.650;2022-12-08T05:12:49;25.83;;;21.40;;
63346;SDS011;49472;49.880;8.650;2022-12-08T05:15:15;27.27;;;21.60;;
63346;SDS011;49472;49.880;8.650;2022-12-08T05:17:40;38.07;;;23.17;;
63346;SDS011;49472;49.880;8.650;2022-12-08T05:20:05;30.80;;;25.10;;
63346;SDS011;49472;49.880;8.650;2022-12-08T05:22:31;27.10;;;20.87;;
63346;SDS011;49472;49.880;8.650;2022-12-08T05:24:56;30.30;;;22.90;;
63346;SDS011;49472;49.880;8.650;2022-12-08T05:27:22;29.73;;;21.87;;
63346;SDS011;49472;49.880;8.650;2022-12-08T05:29:47;29.67;;;22.83;;
63346;SDS011;49472;49.880;8.650;2022-12-08T05:32:14;28.93;;;22.57;;
63346;SDS011;49472;49.880;8.650;2022-12-08T05:34:39;36.37;;;22.30;;
63346;SDS011;49472;49.880;8.650;2022-12-08T05:37:05;27.47;;;22.03;;
63346;SDS011;49472;49.880;8.650;2022-12-08T05:39:30;28.70;;;22.30;;
63346;SDS011;49472;49.880;8.650;2022-12-08T05:41:55;30.37;;;22.37;;
63346;SDS011;49472;49.880;8.650;2022-12-08T05:44:20;35.50;;;21.80;;
63346;SDS011;49472;49.880;8.650;2022-12-08T05:46:46;29.20;;;22.03;;
63346;SDS011;49472;49.880;8.650;2022-12-08T05:49:11;32.20;;;23.53;;
63346;SDS011;49472;49.880;8.650;2022-12-08T05:51:36;34.43;;;22.50;;
63346;SDS011;49472;49.880;8.650;2022-12-08T05:54:02;36.33;;;23.27;;
63346;SDS011;49472;49.880;8.650;2022-12-08T05:56:27;31.80;;;24.27;;
63346;SDS011;49472;49.880;8.650;2022-12-08T05:58:52;31.80;;;23.27;;
63346;SDS011;49472;49.880;8.650;2022-12-08T06:01:28;28.17;;;20.57;;
63346;SDS011;49472;49.880;8.650;2022-12-08T06:03:55;31.20;;;21.70;;
63346;SDS011;49472;49.880;8.650;2022-12-08T06:06:22;32.67;;;23.20;;
63346;SDS011;49472;49.880;8.650;2022-12-08T06:08:48;25.87;;;21.47;;
63346;SDS011;49472;49.880;8.650;2022-12-08T06:11:17;30.57;;;22.07;;
63346;SDS011;49472;49.880;8.650;2022-12-08T06:13:45;29.20;;;22.90;;
63346;SDS011;49472;49.880;8.650;2022-12-08T06:16:11;30.10;;;21.33;;
63346;SDS011;49472;49.880;8.650;2022-12-08T06:18:36;33.00;;;22.07;;
63346;SDS011;49472;49.880;8.650;2022-12-08T06:21:02;27.40;;;21.40;;
63346;SDS011;49472;49.880;8.650;2022-12-08T06:23:31;32.00;;;23.07;;
63346;SDS011;49472;49.880;8.650;2022-12-08T06:26:04;31.23;;;23.67;;
63346;SDS011;49472;49.880;8.650;2022-12-08T06:28:33;29.50;;;23.10;;
63346;SDS011;49472;49.880;8.650;2022-12-08T06:30:59;34.43;;;22.30;;
63346;SDS011;49472;49.880;8.650;2022-12-08T06:33:31;29.67;;;22.37;;
63346;SDS011;49472;49.880;8.650;2022-12-08T06:35:57;31.03;;;23.07;;
63346;SDS011;49472;49.880;8.650;2022-12-08T06:38:22;31.53;;;23.50;;
63346;SDS011;49472;49.880;8.650;2022-12-08T06:40:57;28.70;;;23.47;;
63346;SDS011;49472;49.880;8.650;2022-12-08T06:43:23;28.53;;;22.10;;
63346;SDS011;49472;49.880;8.650;2022-12-08T06:45:49;32.13;;;22.20;;
63346;SDS011;49472;49.880;8.650;2022-12-08T06:48:15;29.33;;;22.80;;
63346;SDS011;49472;49.880;8.650;2022-12-08T06:50:41;28.73;;;22.43;;
63346;SDS011;49472;49.880;8.650;2022-12-08T06:53:06;34.87;;;22.43;;
63346;SDS011;49472;49.880;8.650;2022-12-08T06:55:32;33.77;;;24.67;;
63346;SDS011;49472;49.880;8.650;2022-12-08T06:57:57;30.70;;;24.27;;
63346;SDS011;49472;49.880;8.650;2022-12-08T07:00:23;28.60;;;23.13;;
63346;SDS011;49472;49.880;8.650;2022-12-08T07:02:48;31.80;;;24.53;;
63346;SDS011;49472;49.880;8.650;2022-12-08T07:05:14;29.43;;;22.07;;
63346;SDS011;49472;49.880;8.650;2022-12-08T07:07:39;30.67;;;23.27;;
63346;SDS011;49472;49.880;8.650;2022-12-08T07:10:05;28.13;;;23.03;;
63346;SDS011;49472;49.880;8.650;2022-12-08T07:12:31;30.80;;;24.10;;
63346;SDS011;49472;49.880;8.650;2022-12-08T07:14:56;28.10;;;23.13;;
63346;SDS011;49472;49.880;8.650;2022-12-08T07:17:21;29.93;;;23.50;;
63346;SDS011;49472;49.880;8.650;2022-12-08T07:19:47;29.87;;;22.57;;
63346;SDS011;49472;49.880;8.650;2022-12-08T07:22:12;32.23;;;24.50;;
63346;SDS011;49472;49.880;8.650;2022-12-08T07:24:37;29.97;;;22.93;;
63346;SDS011;49472;49.880;8.650;2022-12-08T07:27:02;32.30;;;24.50;;
63346;SDS011;49472;49.880;8.650;2022-12-08T07:29:28;29.73;;;23.03;;
63346;SDS011;49472;49.880;8.650;2022-12-08T07:31:53;31.17;;;24.40;;
63346;SDS011;49472;49.880;8.650;2022-12-08T07:34:18;30.17;;;22.80;;
63346;SDS011;49472;49.880;8.650;2022-12-08T07:36:44;28.03;;;23.20;;
63346;SDS011;49472;49.880;8.650;2022-12-08T07:39:09;28.93;;;22.87;;
63346;SDS011;49472;49.880;8.650;2022-12-08T07:41:34;25.33;;;22.23;;
63346;SDS011;49472;49.880;8.650;2022-12-08T07:44:00;27.10;;;23.07;;
63346;SDS011;49472;49.880;8.650;2022-12-08T07:46:25;33.53;;;24.57;;
63346;SDS011;49472;49.880;8.650;2022-12-08T07:48:51;32.90;;;24.63;;
63346;SDS011;49472;49.880;8.650;2022-12-08T07:51:18;30.87;;;23.13;;
63346;SDS011;49472;49.880;8.650;2022-12-08T07:53:44;35.43;;;25.03;;
63346;SDS011;49472;49.880;8.650;2022-12-08T07:56:11;30.13;;;23.40;;
63346;SDS011;49472;49.880;8.650;2022-12-08T07:58:37;38.67;;;24.10;;
63346;SDS011;49472;49.880;8.650;2022-12-08T08:01:03;32.43;;;24.50;;
63346;SDS011;49472;49.880;8.650;2022-12-08T08:03:29;35.80;;;24.97;;
63346;SDS011;49472;49.880;8.650;2022-12-08T08:05:54;29.40;;;22.50;;
63346;SDS011;49472;49.880;8.650;2022-12-08T08:08:25;26.50;;;21.80;;
63346;SDS011;49472;49.880;8.650;2022-12-08T08:10:51;25.80;;;21.93;;
63346;SDS011;49472;49.880;8.650;2022-12-08T08:13:16;31.17;;;22.50;;
63346;SDS011;49472;49.880;8.650;2022-12-08T08:15:41;32.90;;;21.30;;
63346;SDS011;49472;49.880;8.650;2022-12-08T08:18:06;32.73;;;22.27;;
63346;SDS011;49472;49.880;8.650;2022-12-08T08:20:32;27.00;;;23.10;;
63346;SDS011;49472;49.880;8.650;2022-12-08T08:22:57;34.23;;;23.03;;
63346;SDS011;49472;49.880;8.650;2022-12-08T08:25:23;25.63;;;22.47;;
63346;SDS011;49472;49.880;8.650;2022-12-08T08:27:48;31.60;;;22.60;;
63346;SDS011;49472;49.880;8.650;2022-12-08T08:30:14;24.00;;;21.40;;
63346;SDS011;49472;49.880;8.650;2022-12-08T08:32:40;27.43;;;20.70;;
63346;SDS011;49472;49.880;8.650;2022-12-08T08:35:06;25.97;;;21.33;;
63346;SDS011;49472;49.880;8.650;2022-12-08T08:37:32;28.70;;;22.00;;
63346;SDS011;49472;49.880;8.650;2022-12-08T08:39:57;27.80;;;22.00;;
63346;SDS011;49472;49.880;8.650;2022-12-08T08:42:22;27.97;;;21.80;;
63346;SDS011;49472;49.880;8.650;2022-12-08T08:44:48;28.37;;;22.73;;
63346;SDS011;49472;49.880;8.650;2022-12-08T08:47:13;29.40;;;23.03;;
63346;SDS011;49472;49.880;8.650;2022-12-08T08:49:39;31.40;;;22.23;;
63346;SDS011;49472;49.880;8.650;2022-12-08T08:52:04;26.37;;;21.20;;
63346;SDS011;49472;49.880;8.650;2022-12-08T08:54:30;31.33;;;23.13;;
63346;SDS011;49472;49.880;8.650;2022-12-08T08:56:56;30.03;;;20.80;;
63346;SDS011;49472;49.880;8.650;2022-12-08T08:59:22;25.37;;;20.27;;
63346;SDS011;49472;49.880;8.650;2022-12-08T09:01:47;29.07;;;23.00;;
63346;SDS011;49472;49.880;8.650;2022-12-08T09:04:13;25.13;;;20.53;;
63346;SDS011;49472;49.880;8.650;2022-12-08T09:06:38;30.17;;;23.10;;
63346;SDS011;49472;49.880;8.650;2022-12-08T09:09:04;26.80;;;21.67;;
63346;SDS011;49472;49.880;8.650;2022-12-08T09:11:30;29.50;;;23.87;;
63346;SDS011;49472;49.880;8.650;2022-12-08T09:13:56;27.60;;;21.93;;
63346;SDS011;49472;49.880;8.650;2022-12-08T09:16:21;25.80;;;21.80;;
63346;SDS011;49472;49.880;8.650;2022-12-08T09:18:46;26.83;;;22.70;;
63346;SDS011;49472;49.880;8.650;2022-12-08T09:21:14;27.07;;;22.83;;
63346;SDS011;49472;49.880;8.650;2022-12-08T09:23:44;31.80;;;22.97;;
63346;SDS011;49472;49.880;8.650;2022-12-08T09:26:10;26.97;;;21.07;;
63346;SDS011;49472;49.880;8.650;2022-12-08T09:28:36;24.30;;;21.17;;
63346;SDS011;49472;49.880;8.650;2022-12-08T09:31:01;27.67;;;21.50;;
63346;SDS011;49472;49.880;8.650;2022-12-08T09:33:27;27.37;;;21.67;;
63346;SDS011;49472;49.880;8.650;2022-12-08T09:35:52;31.33;;;22.30;;
63346;SDS011;49472;49.880;8.650;2022-12-08T09:38:18;31.07;;;21.60;;
63346;SDS011;49472;49.880;8.650;2022-12-08T09:40:50;27.33;;;21.37;;
63346;SDS011;49472;49.880;8.650;2022-12-08T09:46:19;26.30;;;20.73;;
63346;SDS011;49472;49.880;8.650;2022-12-08T09:48:56;33.10;;;22.63;;
63346;SDS011;49472;49.880;8.650;2022-12-08T09:51:23;29.60;;;21.93;;
63346;SDS011;49472;49.880;8.650;2022-12-08T09:53:53;26.60;;;21.30;;
63346;SDS011;49472;49.880;8.650;2022-12-08T09:56:22;29.20;;;20.87;;
63346;SDS011;49472;49.880;8.650;2022-12-08T10:01:31;29.10;;;21.30;;
63346;SDS011;49472;49.880;8.650;2022-12-08T10:03:59;36.90;;;22.93;;
63346;SDS011;49472;49.880;8.650;2022-12-08T10:11:56;30.37;;;20.40;;
63346;SDS011;49472;49.880;8.650;2022-12-08T10:15:02;35.43;;;21.77;;
63346;SDS011;49472;49.880;8.650;2022-12-08T10:17:40;26.93;;;20.80;;
63346;SDS011;49472;49.880;8.650;2022-12-08T10:20:15;26.30;;;21.47;;
63346;SDS011;49472;49.880;8.650;2022-12-08T10:22:45;29.50;;;21.77;;
63346;SDS011;49472;49.880;8.650;2022-12-08T10:25:17;28.27;;;21.40;;
63346;SDS011;49472;49.880;8.650;2022-12-08T10:27:47;31.20;;;22.40;;
63346;SDS011;49472;49.880;8.650;2022-12-08T10:30:16;27.73;;;22.03;;
63346;SDS011;49472;49.880;8.650;2022-12-08T10:32:46;28.70;;;23.10;;
63346;SDS011;49472;49.880;8.650;2022-12-08T10:35:14;40.77;;;25.27;;
63346;SDS011;49472;49.880;8.650;2022-12-08T10:37:50;26.63;;;22.30;;
63346;SDS011;49472;49.880;8.650;2022-12-08T10:40:21;27.70;;;21.43;;
63346;SDS011;49472;49.880;8.650;2022-12-08T10:42:47;26.30;;;21.47;;
63346;SDS011;49472;49.880;8.650;2022-12-08T10:48:11;30.70;;;22.60;;
63346;SDS011;49472;49.880;8.650;2022-12-08T10:50:42;27.37;;;20.40;;
63346;SDS011;49472;49.880;8.650;2022-12-08T10:53:14;30.20;;;21.37;;
63346;SDS011;49472;49.880;8.650;2022-12-08T10:55:45;27.57;;;21.23;;
63346;SDS011;49472;49.880;8.650;2022-12-08T10:58:34;33.50;;;21.83;;
63346;SDS011;49472;49.880;8.650;2022-12-08T11:01:05;24.27;;;20.87;;
63346;SDS011;49472;49.880;8.650;2022-12-08T11:03:48;26.50;;;20.80;;
63346;SDS011;49472;49.880;8.650;2022-12-08T11:08:54;29.60;;;21.90;;
63346;SDS011;49472;49.880;8.650;2022-12-08T11:11:21;26.80;;;21.87;;
63346;SDS011;49472;49.880;8.650;2022-12-08T11:14:05;27.80;;;20.57;;
63346;SDS011;49472;49.880;8.650;2022-12-08T11:16:32;25.10;;;21.27;;
63346;SDS011;49472;49.880;8.650;2022-12-08T11:18:57;46.33;;;22.90;;
63346;SDS011;49472;49.880;8.650;2022-12-08T11:21:29;27.00;;;22.83;;
63346;SDS011;49472;49.880;8.650;2022-12-08T11:24:03;25.30;;;21.33;;
63346;SDS011;49472;49.880;8.650;2022-12-08T11:26:44;27.27;;;21.77;;
63346;SDS011;49472;49.880;8.650;2022-12-08T11:29:26;29.67;;;22.30;;
63346;SDS011;49472;49.880;8.650;2022-12-08T11:31:56;25.47;;;20.63;;
63346;SDS011;49472;49.880;8.650;2022-12-08T11:34:31;35.93;;;21.47;;
63346;SDS011;49472;49.880;8.650;2022-12-08T11:37:02;23.67;;;20.77;;
63346;SDS011;49472;49.880;8.650;2022-12-08T11:39:30;31.83;;;21.43;;
63346;SDS011;49472;49.880;8.650;2022-12-08T11:42:04;29.83;;;20.43;;
63346;SDS011;49472;49.880;8.650;2022-12-08T11:44:46;22.47;;;19.90;;
63346;SDS011;49472;49.880;8.650;2022-12-08T11:49:49;30.60;;;20.37;;
63346;SDS011;49472;49.880;8.650;2022-12-08T11:52:28;23.30;;;20.27;;
63346;SDS011;49472;49.880;8.650;2022-12-08T11:55:20;28.70;;;21.70;;
63346;SDS011;49472;49.880;8.650;2022-12-08T11:58:15;27.00;;;20.90;;
63346;SDS011;49472;49.880;8.650;2022-12-08T12:00:44;28.00;;;21.27;;
63346;SDS011;49472;49.880;8.650;2022-12-08T12:03:52;32.93;;;22.20;;
63346;SDS011;49472;49.880;8.650;2022-12-08T12:06:11;27.90;;;20.97;;
63346;SDS011;49472;49.880;8.650;2022-12-08T12:09:09;24.93;;;20.47;;
63346;SDS011;49472;49.880;8.650;2022-12-08T12:20:34;28.23;;;20.93;;
63346;SDS011;49472;49.880;8.650;2022-12-08T12:23:17;36.03;;;20.63;;
63346;SDS011;49472;49.880;8.650;2022-12-08T12:25:48;31.23;;;20.30;;
63346;SDS011;49472;49.880;8.650;2022-12-08T12:28:19;22.10;;;19.60;;
63346;SDS011;49472;49.880;8.650;2022-12-08T12:33:22;24.87;;;19.70;;
63346;SDS011;49472;49.880;8.650;2022-12-08T12:35:48;22.00;;;19.70;;
63346;SDS011;49472;49.880;8.650;2022-12-08T12:38:17;25.30;;;19.67;;
63346;SDS011;49472;49.880;8.650;2022-12-08T12:41:05;21.60;;;19.30;;
63346;SDS011;49472;49.880;8.650;2022-12-08T12:43:34;24.70;;;20.03;;
63346;SDS011;49472;49.880;8.650;2022-12-08T12:48:49;23.60;;;19.33;;
63346;SDS011;49472;49.880;8.650;2022-12-08T12:51:53;21.13;;;17.90;;
63346;SDS011;49472;49.880;8.650;2022-12-08T12:56:50;19.80;;;17.73;;
63346;SDS011;49472;49.880;8.650;2022-12-08T12:59:29;20.53;;;18.17;;
63346;SDS011;49472;49.880;8.650;2022-12-08T13:02:00;20.60;;;18.00;;
63346;SDS011;49472;49.880;8.650;2022-12-08T13:04:33;22.73;;;18.60;;
63346;SDS011;49472;49.880;8.650;2022-12-08T13:07:01;22.37;;;18.83;;
63346;SDS011;49472;49.880;8.650;2022-12-08T13:09:34;23.83;;;17.83;;
63346;SDS011;49472;49.880;8.650;2022-12-08T13:12:07;21.80;;;18.90;;
63346;SDS011;49472;49.880;8.650;2022-12-08T13:14:36;23.50;;;19.13;;
63346;SDS011;49472;49.880;8.650;2022-12-08T13:17:09;23.80;;;18.73;;
63346;SDS011;49472;49.880;8.650;2022-12-08T13:19:37;29.83;;;19.33;;
63346;SDS011;49472;49.880;8.650;2022-12-08T13:23:00;41.70;;;18.63;;
63346;SDS011;49472;49.880;8.650;2022-12-08T13:28:38;19.97;;;17.80;;
63346;SDS011;49472;49.880;8.650;2022-12-08T13:30:57;24.27;;;18.00;;
63346;SDS011;49472;49.880;8.650;2022-12-08T13:33:28;18.63;;;16.90;;
63346;SDS011;49472;49.880;8.650;2022-12-08T13:35:59;18.83;;;16.63;;
63346;SDS011;49472;49.880;8.650;2022-12-08T13:38:27;21.50;;;17.63;;
63346;SDS011;49472;49.880;8.650;2022-12-08T13:40:55;17.77;;;16.07;;
63346;SDS011;49472;49.880;8.650;2022-12-08T13:45:52;19.13;;;17.10;;
63346;SDS011;49472;49.880;8.650;2022-12-08T13:51:06;23.03;;;17.17;;
63346;SDS011;49472;49.880;8.650;2022-12-08T13:53:43;19.17;;;17.10;;
63346;SDS011;49472;49.880;8.650;2022-12-08T13:56:17;19.27;;;17.27;;
63346;SDS011;49472;49.880;8.650;2022-12-08T13:58:43;19.33;;;17.43;;
63346;SDS011;49472;49.880;8.650;2022-12-08T14:03:48;18.27;;;16.67;;
63346;SDS011;49472;49.880;8.650;2022-12-08T14:06:17;19.57;;;17.53;;
63346;SDS011;49472;49.880;8.650;2022-12-08T14:08:53;19.07;;;17.17;;
63346;SDS011;49472;49.880;8.650;2022-12-08T14:11:38;19.47;;;17.67;;
63346;SDS011;49472;49.880;8.650;2022-12-08T14:14:20;20.10;;;18.00;;
63346;SDS011;49472;49.880;8.650;2022-12-08T14:16:51;20.33;;;18.13;;
63346;SDS011;49472;49.880;8.650;2022-12-08T14:19:26;23.53;;;18.43;;
63346;SDS011;49472;49.880;8.650;2022-12-08T14:21:55;19.80;;;17.87;;
63346;SDS011;49472;49.880;8.650;2022-12-08T14:24:23;27.43;;;19.87;;
63346;SDS011;49472;49.880;8.650;2022-12-08T14:26:51;24.53;;;18.20;;
63346;SDS011;49472;49.880;8.650;2022-12-08T14:37:20;21.40;;;19.20;;
63346;SDS011;49472;49.880;8.650;2022-12-08T14:39:46;21.33;;;18.97;;
63346;SDS011;49472;49.880;8.650;2022-12-08T14:42:22;29.67;;;20.70;;
63346;SDS011;49472;49.880;8.650;2022-12-08T14:45:03;20.83;;;18.60;;
63346;SDS011;49472;49.880;8.650;2022-12-08T14:47:33;25.33;;;21.63;;
63346;SDS011;49472;49.880;8.650;2022-12-08T14:49:59;27.57;;;20.93;;
63346;SDS011;49472;49.880;8.650;2022-12-08T14:52:26;25.40;;;20.17;;
63346;SDS011;49472;49.880;8.650;2022-12-08T14:54:52;26.70;;;19.70;;
63346;SDS011;49472;49.880;8.650;2022-12-08T14:57:17;29.93;;;21.50;;
63346;SDS011;49472;49.880;8.650;2022-12-08T14:59:43;20.53;;;18.37;;
63346;SDS011;49472;49.880;8.650;2022-12-08T15:04:36;27.53;;;20.07;;
63346;SDS011;49472;49.880;8.650;2022-12-08T15:09:34;28.40;;;20.47;;
63346;SDS011;49472;49.880;8.650;2022-12-08T15:14:32;22.57;;;18.63;;
63346;SDS011;49472;49.880;8.650;2022-12-08T15:16:58;22.40;;;19.90;;
63346;SDS011;49472;49.880;8.650;2022-12-08T15:19:26;25.23;;;18.60;;
63346;SDS011;49472;49.880;8.650;2022-12-08T15:21:54;23.50;;;18.97;;
63346;SDS011;49472;49.880;8.650;2022-12-08T15:24:22;23.37;;;20.00;;
63346;SDS011;49472;49.880;8.650;2022-12-08T15:26:50;23.60;;;19.47;;
63346;SDS011;49472;49.880;8.650;2022-12-08T15:29:20;24.50;;;20.83;;
63346;SDS011;49472;49.880;8.650;2022-12-08T15:31:47;24.70;;;19.37;;
63346;SDS011;49472;49.880;8.650;2022-12-08T15:34:13;25.77;;;19.20;;
63346;SDS011;49472;49.880;8.650;2022-12-08T15:36:38;23.87;;;19.63;;
63346;SDS011;49472;49.880;8.650;2022-12-08T15:39:06;24.50;;;19.50;;
63346;SDS011;49472;49.880;8.650;2022-12-08T15:41:41;27.77;;;20.60;;
63346;SDS011;49472;49.880;8.650;2022-12-08T15:44:06;22.57;;;18.83;;
63346;SDS011;49472;49.880;8.650;2022-12-08T15:46:32;22.00;;;18.63;;
63346;SDS011;49472;49.880;8.650;2022-12-08T15:48:57;24.27;;;20.00;;
63346;SDS011;49472;49.880;8.650;2022-12-08T15:51:22;26.10;;;20.00;;
63346;SDS011;49472;49.880;8.650;2022-12-08T15:53:47;23.57;;;19.90;;
63346;SDS011;49472;49.880;8.650;2022-12-08T15:56:13;25.57;;;19.57;;
63346;SDS011;49472;49.880;8.650;2022-12-08T15:58:38;24.40;;;20.07;;
63346;SDS011;49472;49.880;8.650;2022-12-08T16:01:04;21.90;;;19.43;;
63346;SDS011;49472;49.880;8.650;2022-12-08T16:03:29;23.17;;;19.70;;
63346;SDS011;49472;49.880;8.650;2022-12-08T16:05:56;20.80;;;18.57;;
63346;SDS011;49472;49.880;8.650;2022-12-08T16:08:25;27.87;;;20.20;;